Time;durP1;ratioP1;P1;durP2;ratioP2;P2;SDS_P1;SDS_P2;PMS_P1;PMS_P2;Temp;Humidity;BMP_temperature;BMP_pressure;BME280_temperature;BME280_humidity;BME280_pressure;Samples;Min_cycle;Max_cycle;Signal;HPM_P1;HPM_P2
2023/07/14 00:01:25;;;;;;;3.95;1.30;;;;;;;14.49;79.69;97561.13;5065019;28;20033;-57
2023/07/14 00:03:52;;;;;;;4.75;1.50;;;;;;;14.56;79.25;97553.50;5064295;28;20074;-58
2023/07/14 00:06:20;;;;;;;2.92;1.40;;;;;;;14.60;78.70;97554.59;5064434;28;20040;-58
2023/07/14 00:08:48;;;;;;;5.15;1.70;;;;;;;14.61;79.40;97550.78;5064871;28;20541;-58
2023/07/14 00:11:23;;;;;;;4.18;1.52;;;;;;;14.60;79.54;97551.88;5065438;28;20064;-57
2023/07/14 00:13:51;;;;;;;3.15;1.60;;;;;;;14.62;79.16;97560.56;5065031;28;20648;-58
2023/07/14 00:16:25;;;;;;;3.58;1.63;;;;;;;14.76;78.63;97557.28;5064688;28;20055;-58
2023/07/14 00:18:51;;;;;;;4.47;1.60;;;;;;;14.70;79.60;97546.41;5061236;28;20074;-57
2023/07/14 00:21:22;;;;;;;6.10;1.90;;;;;;;14.65;78.65;97551.84;5064331;28;20044;-58
2023/07/14 00:23:50;;;;;;;3.93;1.40;;;;;;;14.76;78.53;97549.09;5064267;28;20495;-58
2023/07/14 00:26:19;;;;;;;3.67;1.58;;;;;;;14.59;79.65;97552.13;5064233;28;20051;-58
2023/07/14 00:28:48;;;;;;;3.50;1.42;;;;;;;14.47;80.62;97546.94;5064481;28;20060;-56
2023/07/14 00:31:19;;;;;;;9.40;2.20;;;;;;;14.52;81.07;97552.41;5062758;28;20041;-57
2023/07/14 00:33:49;;;;;;;7.95;1.70;;;;;;;14.56;80.21;97545.34;5063746;28;20531;-57
2023/07/14 00:36:17;;;;;;;5.70;1.63;;;;;;;14.52;80.10;97542.31;5063117;28;20083;-57
2023/07/14 00:38:44;;;;;;;4.38;1.60;;;;;;;14.44;80.49;97549.13;5064746;28;20050;-54
2023/07/14 00:41:22;;;;;;;3.65;1.60;;;;;;;14.47;80.23;97541.50;5062916;28;20060;-56
2023/07/14 00:43:50;;;;;;;4.70;1.77;;;;;;;14.28;81.65;97536.59;5062448;28;20051;-57
2023/07/14 00:46:27;;;;;;;3.92;1.67;;;;;;;14.21;81.56;97534.16;5062633;28;20093;-55
2023/07/14 00:48:58;;;;;;;7.55;1.90;;;;;;;14.24;81.64;97536.34;5061016;28;20043;-56
2023/07/14 00:51:27;;;;;;;5.32;1.60;;;;;;;14.15;82.78;97535.22;5062433;28;20040;-59
2023/07/14 00:53:54;;;;;;;4.40;1.65;;;;;;;14.03;83.58;97535.50;5058011;28;20419;-57
2023/07/14 00:56:40;;;;;;;4.03;1.83;;;;;;;13.92;84.28;97534.66;5061626;28;20045;-55
2023/07/14 00:59:13;;;;;;;3.13;1.63;;;;;;;13.83;84.96;97534.41;5062847;28;20051;-56
2023/07/14 01:02:10;;;;;;;5.53;3.00;;;;;;;13.87;85.30;97527.34;5046643;28;20139;-57
2023/07/14 01:04:39;;;;;;;2.97;1.90;;;;;;;13.87;85.09;97526.50;5060572;28;20040;-56
2023/07/14 01:07:07;;;;;;;5.25;2.17;;;;;;;13.87;85.13;97527.34;5063828;28;20524;-57
2023/07/14 01:09:34;;;;;;;4.93;2.00;;;;;;;14.01;83.83;97526.81;5064014;28;20040;-56
2023/07/14 01:12:03;;;;;;;5.38;2.00;;;;;;;13.95;83.83;97522.41;5065198;28;20055;-56
2023/07/14 01:14:37;;;;;;;3.95;1.80;;;;;;;13.85;84.47;97523.22;5061970;28;20075;-57
2023/07/14 01:17:04;;;;;;;4.72;1.80;;;;;;;13.74;84.83;97527.81;5063647;28;20052;-57
2023/07/14 01:19:40;;;;;;;3.42;1.70;;;;;;;13.66;85.55;97529.16;5059615;28;20055;-57
2023/07/14 01:22:06;;;;;;;3.70;1.70;;;;;;;13.59;86.28;97518.56;5060858;28;20045;-56
2023/07/14 01:24:42;;;;;;;3.83;1.58;;;;;;;13.68;85.33;97520.75;5061604;28;20048;-57
2023/07/14 01:27:10;;;;;;;8.75;1.83;;;;;;;13.75;84.42;97526.75;5061555;28;20045;-57
2023/07/14 01:29:37;;;;;;;4.88;1.80;;;;;;;13.61;85.24;97523.72;5050683;28;20036;-57
2023/07/14 01:32:16;;;;;;;4.70;1.75;;;;;;;13.63;85.46;97513.38;5058700;28;20388;-57
2023/07/14 01:34:44;;;;;;;5.70;2.05;;;;;;;13.59;85.25;97510.38;5061511;28;20434;-57
2023/07/14 01:37:14;;;;;;;6.38;1.67;;;;;;;13.54;85.62;97502.22;5061547;28;20488;-57
2023/07/14 01:39:42;;;;;;;3.97;1.70;;;;;;;13.54;85.68;97507.66;5063382;28;20040;-56
2023/07/14 01:42:09;;;;;;;4.28;1.95;;;;;;;13.49;86.04;97505.72;5061988;28;20033;-55
2023/07/14 01:44:35;;;;;;;5.90;1.95;;;;;;;13.40;86.30;97497.25;5065749;28;20037;-58
2023/07/14 01:47:02;;;;;;;3.20;1.73;;;;;;;13.47;85.98;97496.19;5062857;28;20059;-56
2023/07/14 01:49:41;;;;;;;3.15;1.65;;;;;;;13.46;86.04;97494.56;5062187;28;20073;-57
2023/07/14 01:52:15;;;;;;;5.80;1.90;;;;;;;13.48;85.73;97503.28;5061891;28;20037;-57
2023/07/14 01:54:48;;;;;;;6.03;1.85;;;;;;;13.52;85.62;97496.22;5061182;28;20032;-54
2023/07/14 01:57:20;;;;;;;3.42;1.83;;;;;;;13.49;85.84;97497.56;5062465;28;20071;-57
2023/07/14 01:59:55;;;;;;;5.03;2.03;;;;;;;13.42;86.12;97488.00;5061383;28;20111;-57
2023/07/14 02:02:30;;;;;;;5.65;1.95;;;;;;;13.44;86.08;97489.38;5061982;28;20109;-56
2023/07/14 02:04:57;;;;;;;3.78;1.75;;;;;;;13.31;86.84;97490.72;5061747;28;20064;-53
2023/07/14 02:07:24;;;;;;;3.83;1.63;;;;;;;13.30;86.94;97494.50;5060886;28;20446;-54
2023/07/14 02:09:50;;;;;;;4.13;1.80;;;;;;;13.27;87.26;97490.41;5060253;28;20045;-55
2023/07/14 02:12:27;;;;;;;5.70;2.50;;;;;;;13.24;87.39;97488.22;5061618;28;20040;-58
2023/07/14 02:15:05;;;;;;;5.28;2.10;;;;;;;13.18;87.85;97485.75;5059996;28;20177;-57
2023/07/14 02:17:34;;;;;;;5.00;1.85;;;;;;;13.22;87.10;97484.97;5057121;28;20593;-57
2023/07/14 02:20:06;;;;;;;5.38;1.90;;;;;;;13.25;86.91;97486.31;5061850;28;20041;-57
2023/07/14 02:22:34;;;;;;;3.90;1.92;;;;;;;13.23;87.42;97485.78;5059405;28;20430;-56
2023/07/14 02:25:05;;;;;;;4.30;1.90;;;;;;;13.20;87.57;97489.81;5061895;28;20032;-57
2023/07/14 02:27:31;;;;;;;2.83;1.60;;;;;;;13.23;87.40;97488.50;5059754;28;20572;-57
2023/07/14 02:30:09;;;;;;;4.80;1.70;;;;;;;13.17;88.02;97481.41;5062833;28;20698;-55
2023/07/14 02:32:44;;;;;;;6.13;2.08;;;;;;;13.22;87.54;97479.53;5060782;28;20078;-56
2023/07/14 02:35:30;;;;;;;3.60;1.70;;;;;;;13.21;87.50;97479.78;5059453;28;20040;-58
2023/07/14 02:38:11;;;;;;;4.72;2.00;;;;;;;13.27;87.04;97474.09;5063957;28;20115;-56
2023/07/14 02:40:51;;;;;;;5.00;1.90;;;;;;;13.33;86.26;97469.50;5070169;28;20043;-57
2023/07/14 02:43:20;;;;;;;7.32;1.90;;;;;;;13.36;86.09;97465.41;5062559;28;20289;-56
2023/07/14 02:45:55;;;;;;;5.35;1.95;;;;;;;13.27;87.20;97478.72;5058878;28;21378;-54
2023/07/14 02:48:38;;;;;;;8.15;2.28;;;;;;;13.30;86.88;97467.28;5063841;28;20040;-55
2023/07/14 02:51:05;;;;;;;8.77;2.05;;;;;;;13.25;86.83;97472.72;5064889;28;20063;-55
2023/07/14 02:53:32;;;;;;;4.07;1.85;;;;;;;13.31;86.58;97470.84;5064493;28;20036;-54
2023/07/14 02:55:58;;;;;;;3.95;1.85;;;;;;;13.17;87.49;97474.06;5061452;28;20048;-56
2023/07/14 02:58:25;;;;;;;5.97;2.50;;;;;;;13.09;88.13;97474.59;5065246;28;20094;-57
2023/07/14 03:00:52;;;;;;;5.55;2.15;;;;;;;13.11;88.25;97473.22;5061961;28;20107;-54
2023/07/14 03:03:19;;;;;;;6.38;2.22;;;;;;;13.17;88.44;97468.63;5067309;28;20032;-56
2023/07/14 03:05:46;;;;;;;5.18;1.92;;;;;;;13.25;87.05;97456.41;5065221;28;20519;-54
2023/07/14 03:08:17;;;;;;;8.20;2.10;;;;;;;13.22;87.43;97465.94;5065715;28;20048;-56
2023/07/14 03:10:46;;;;;;;5.70;1.98;;;;;;;13.33;86.89;97455.91;5064961;28;20036;-56
2023/07/14 03:13:15;;;;;;;5.28;2.30;;;;;;;13.12;87.84;97444.94;5062901;28;20032;-56
2023/07/14 03:15:43;;;;;;;4.15;1.83;;;;;;;13.04;88.31;97450.09;5064678;28;20048;-56
2023/07/14 03:18:11;;;;;;;3.78;1.92;;;;;;;13.04;88.95;97442.75;5065869;28;20055;-57
2023/07/14 03:20:38;;;;;;;4.10;1.90;;;;;;;13.20;87.06;97443.59;5065482;28;20045;-57
2023/07/14 03:23:04;;;;;;;4.82;1.98;;;;;;;12.97;89.70;97440.28;5063421;28;20044;-57
2023/07/14 03:25:33;;;;;;;4.72;1.92;;;;;;;12.90;89.11;97447.84;5063650;28;20044;-57
2023/07/14 03:28:01;;;;;;;7.28;2.00;;;;;;;12.97;88.89;97443.00;5065089;28;20138;-58
2023/07/14 03:30:28;;;;;;;5.15;2.20;;;;;;;13.01;88.27;97448.72;5060994;28;20094;-57
2023/07/14 03:32:55;;;;;;;3.28;1.33;;;;;;;12.97;88.74;97453.88;5069125;28;20044;-55
2023/07/14 03:35:21;;;;;;;6.95;1.65;;;;;;;12.88;89.21;97450.84;5065895;28;20078;-55
2023/07/14 03:37:48;;;;;;;4.55;1.83;;;;;;;12.73;89.96;97446.16;5066087;28;20048;-57
2023/07/14 03:40:14;;;;;;;3.45;1.98;;;;;;;12.58;91.50;97446.91;5065109;28;20123;-57
2023/07/14 03:42:43;;;;;;;6.28;2.28;;;;;;;12.58;91.46;97443.38;5061203;28;20135;-57
2023/07/14 03:45:10;;;;;;;5.03;2.00;;;;;;;12.62;93.07;97444.47;5064912;28;20675;-56
2023/07/14 03:47:38;;;;;;;6.32;2.45;;;;;;;12.72;91.16;97443.72;5065599;28;20040;-57
2023/07/14 03:50:05;;;;;;;4.50;1.85;;;;;;;12.72;90.72;97441.00;5065126;28;20531;-57
2023/07/14 03:52:32;;;;;;;3.50;2.03;;;;;;;12.42;93.20;97442.47;5065195;28;20082;-58
2023/07/14 03:54:59;;;;;;;6.35;2.40;;;;;;;12.50;92.74;97444.69;5065235;28;20036;-56
2023/07/14 03:57:26;;;;;;;5.97;3.55;;;;;;;12.64;91.74;97446.94;5064960;28;20048;-57
2023/07/14 03:59:53;;;;;;;5.07;2.53;;;;;;;12.68;91.61;97442.59;5061046;28;20051;-57
2023/07/14 04:02:19;;;;;;;6.82;3.15;;;;;;;12.87;89.90;97442.97;5064684;28;20032;-55
2023/07/14 04:04:46;;;;;;;5.93;2.40;;;;;;;12.95;89.53;97447.06;5065168;28;20044;-55
2023/07/14 04:07:12;;;;;;;5.82;2.60;;;;;;;13.04;89.99;97450.91;5065060;28;20048;-57
2023/07/14 04:09:39;;;;;;;14.35;2.42;;;;;;;13.14;89.20;97448.25;5065212;28;20048;-56
2023/07/14 04:12:05;;;;;;;4.72;2.05;;;;;;;13.24;88.14;97447.44;5066031;28;20381;-57
2023/07/14 04:14:32;;;;;;;3.97;2.05;;;;;;;13.44;87.50;97450.47;5064971;28;20044;-55
2023/07/14 04:16:59;;;;;;;6.05;2.22;;;;;;;13.18;88.77;97445.78;5065502;28;20051;-57
2023/07/14 04:19:25;;;;;;;5.32;2.10;;;;;;;13.01;90.79;97446.00;5067594;28;20492;-54
2023/07/14 04:21:52;;;;;;;5.75;2.13;;;;;;;13.12;91.15;97453.09;5063736;28;20051;-56
2023/07/14 04:24:18;;;;;;;4.25;1.90;;;;;;;13.16;91.75;97442.50;5062764;28;20037;-57
2023/07/14 04:26:45;;;;;;;5.88;3.00;;;;;;;13.12;90.38;97449.59;5064884;28;20044;-57
2023/07/14 04:29:12;;;;;;;8.27;3.17;;;;;;;13.15;90.23;97435.44;5064710;28;20043;-57
2023/07/14 04:31:38;;;;;;;7.22;3.13;;;;;;;13.23;90.15;97440.34;5064533;28;20040;-57
2023/07/14 04:34:05;;;;;;;6.13;2.17;;;;;;;13.15;91.89;97446.31;5064431;28;20051;-57
2023/07/14 04:36:32;;;;;;;4.30;1.85;;;;;;;13.27;92.70;97440.66;5063884;28;20056;-57
2023/07/14 04:39:05;;;;;;;4.60;1.90;;;;;;;13.36;91.78;97438.22;5065422;28;20127;-57
2023/07/14 04:41:32;;;;;;;4.30;1.92;;;;;;;13.50;90.86;97438.56;5064089;28;20047;-57
2023/07/14 04:44:13;;;;;;;7.63;2.47;;;;;;;13.56;89.36;97437.47;5065070;28;20717;-57
2023/07/14 04:46:41;;;;;;;5.53;2.00;;;;;;;13.67;89.43;97429.34;5056183;28;20098;-58
2023/07/14 04:49:08;;;;;;;4.13;2.08;;;;;;;13.74;89.20;97429.88;5064332;28;20044;-48
2023/07/14 04:51:36;;;;;;;6.18;2.17;;;;;;;13.85;88.57;97442.41;5063751;28;20042;-47
2023/07/14 04:54:03;;;;;;;4.18;2.30;;;;;;;13.97;87.78;97433.16;5064129;28;20055;-49
2023/07/14 04:56:30;;;;;;;4.72;1.90;;;;;;;14.20;87.17;97439.94;5062275;28;20228;-48
2023/07/14 04:58:56;;;;;;;5.70;1.88;;;;;;;14.40;85.15;97439.09;5064071;28;20507;-48
2023/07/14 05:01:23;;;;;;;4.72;2.35;;;;;;;14.36;85.80;97437.19;5062532;28;20045;-47
2023/07/14 05:03:50;;;;;;;4.43;1.80;;;;;;;14.37;86.38;97436.91;5062722;28;20051;-48
2023/07/14 05:06:16;;;;;;;7.82;2.10;;;;;;;14.46;85.86;97437.19;5063040;28;20037;-46
2023/07/14 05:08:43;;;;;;;6.47;2.20;;;;;;;14.49;86.40;97431.16;5064200;28;20040;-48
2023/07/14 05:11:10;;;;;;;5.85;2.38;;;;;;;14.56;84.51;97433.63;5045756;28;20440;-43
2023/07/14 05:13:36;;;;;;;8.75;2.65;;;;;;;14.66;84.07;97439.03;5060603;28;20098;-44
2023/07/14 05:16:03;;;;;;;3.45;1.90;;;;;;;14.81;83.22;97432.75;5064253;28;20535;-45
2023/07/14 05:18:30;;;;;;;7.15;2.90;;;;;;;14.94;83.82;97435.97;5062768;28;20078;-45
2023/07/14 05:21:01;;;;;;;4.40;1.77;;;;;;;15.03;83.15;97417.09;5064232;28;20119;-45
2023/07/14 05:23:28;;;;;;;6.40;2.20;;;;;;;15.05;82.78;97423.09;5062539;28;20411;-45
2023/07/14 05:25:55;;;;;;;5.30;1.92;;;;;;;15.15;83.51;97420.31;5062712;28;20656;-46
2023/07/14 05:28:22;;;;;;;3.55;2.25;;;;;;;15.26;84.78;97420.28;5063663;28;20048;-48
2023/07/14 05:30:50;;;;;;;4.63;2.22;;;;;;;15.46;82.81;97428.34;5064134;28;21511;-47
2023/07/14 05:33:18;;;;;;;2.95;1.73;;;;;;;15.65;81.42;97424.94;5063028;28;20044;-47
2023/07/14 05:35:45;;;;;;;6.30;2.10;;;;;;;15.60;81.32;97425.78;5063367;28;20036;-46
2023/07/14 05:38:13;;;;;;;6.85;2.15;;;;;;;15.75;79.39;97424.03;5063081;28;20048;-46
2023/07/14 05:40:43;;;;;;;4.13;1.47;;;;;;;15.89;77.54;97418.75;5064782;28;20040;-46
2023/07/14 05:43:24;;;;;;;3.78;1.60;;;;;;;15.95;75.20;97423.09;5063003;28;21061;-45
2023/07/14 05:45:50;;;;;;;3.55;1.45;;;;;;;16.08;75.12;97415.34;5062277;28;20049;-47
2023/07/14 05:48:18;;;;;;;3.97;1.50;;;;;;;16.29;72.09;97418.69;5063466;28;20048;-46
2023/07/14 05:50:45;;;;;;;5.93;1.65;;;;;;;16.27;69.83;97423.63;5062759;28;20059;-45
2023/07/14 05:53:14;;;;;;;4.60;1.77;;;;;;;16.41;70.22;97426.50;5062856;28;20044;-50
2023/07/14 05:55:40;;;;;;;6.70;1.95;;;;;;;16.42;71.31;97419.09;5063262;28;20570;-47
2023/07/14 05:58:07;;;;;;;6.65;2.22;;;;;;;16.45;72.66;97421.28;5063944;28;20044;-42
2023/07/14 06:00:38;;;;;;;4.90;1.77;;;;;;;16.46;73.96;97417.44;5063447;28;20037;-46
2023/07/14 06:03:10;;;;;;;3.70;1.42;;;;;;;16.50;73.28;97413.00;5063260;28;20045;-48
2023/07/14 06:05:37;;;;;;;3.08;1.63;;;;;;;16.55;73.43;97412.16;5061017;28;20040;-46
2023/07/14 06:08:03;;;;;;;5.18;2.20;;;;;;;16.42;73.49;97417.19;5064090;28;20044;-44
2023/07/14 06:10:32;;;;;;;6.85;2.42;;;;;;;16.51;74.25;97412.72;5063652;28;20083;-48
2023/07/14 06:12:58;;;;;;;5.55;1.80;;;;;;;16.50;73.28;97408.38;5063635;28;20040;-50
2023/07/14 06:15:25;;;;;;;4.07;1.63;;;;;;;16.72;72.64;97403.47;5062304;28;20052;-47
2023/07/14 06:17:51;;;;;;;3.72;1.70;;;;;;;16.88;72.58;97406.84;5063986;28;20036;-45
2023/07/14 06:20:18;;;;;;;5.13;2.10;;;;;;;17.08;71.84;97410.44;5062369;28;20088;-55
2023/07/14 06:22:45;;;;;;;5.32;2.22;;;;;;;17.11;71.72;97412.59;5062332;28;20032;-59
2023/07/14 06:25:12;;;;;;;8.43;2.28;;;;;;;17.26;71.52;97406.94;5061856;28;20083;-58
2023/07/14 06:27:39;;;;;;;7.55;1.90;;;;;;;17.42;71.37;97393.84;5062504;28;20515;-59
2023/07/14 06:30:07;;;;;;;3.40;1.92;;;;;;;17.59;70.40;97400.72;5062742;28;20044;-53
2023/07/14 06:32:33;;;;;;;3.67;1.70;;;;;;;17.75;69.55;97403.19;5061041;28;20440;-58
2023/07/14 06:35:00;;;;;;;5.18;1.70;;;;;;;17.84;69.61;97392.38;5062986;28;20037;-58
2023/07/14 06:37:26;;;;;;;3.97;1.88;;;;;;;17.87;69.95;97380.84;5062458;28;20512;-59
2023/07/14 06:39:53;;;;;;;5.93;1.80;;;;;;;18.13;69.01;97378.47;5063088;28;20048;-59
2023/07/14 06:42:20;;;;;;;3.60;1.63;;;;;;;18.42;67.82;97382.06;5061744;28;20051;-59
2023/07/14 06:44:46;;;;;;;4.80;1.52;;;;;;;18.52;65.22;97387.38;5062379;28;20043;-59
2023/07/14 06:47:14;;;;;;;3.22;1.58;;;;;;;18.66;64.39;97381.88;5062562;28;20045;-59
2023/07/14 06:49:41;;;;;;;6.35;1.80;;;;;;;18.89;64.65;97376.47;5060802;28;20040;-59
2023/07/14 06:52:09;;;;;;;4.05;1.60;;;;;;;19.18;62.26;97363.53;5065264;28;20721;-58
2023/07/14 06:54:35;;;;;;;3.00;1.58;;;;;;;19.32;58.57;97364.31;5061942;28;20045;-59
2023/07/14 06:57:03;;;;;;;5.70;1.55;;;;;;;19.42;55.08;97362.47;5061776;28;20067;-59
2023/07/14 06:59:30;;;;;;;3.75;1.77;;;;;;;19.59;55.53;97367.28;5063502;28;20041;-57
2023/07/14 07:01:56;;;;;;;4.60;1.40;;;;;;;19.71;55.01;97364.78;5058451;28;20047;-58
2023/07/14 07:04:23;;;;;;;7.88;1.92;;;;;;;19.87;55.05;97373.44;5066755;28;20048;-59
2023/07/14 07:06:49;;;;;;;5.13;1.60;;;;;;;19.88;53.60;97375.09;5062644;28;20119;-58
2023/07/14 07:09:16;;;;;;;3.45;1.27;;;;;;;19.96;53.54;97362.53;5062263;28;20049;-58
2023/07/14 07:11:42;;;;;;;3.22;1.33;;;;;;;20.02;54.12;97363.22;5062172;28;20041;-58
2023/07/14 07:14:09;;;;;;;2.38;1.25;;;;;;;19.98;54.04;97359.47;5061144;28;20036;-58
2023/07/14 07:16:36;;;;;;;4.85;1.38;;;;;;;20.11;54.38;97364.09;5061510;28;20044;-59
2023/07/14 07:19:03;;;;;;;4.65;1.75;;;;;;;20.27;54.14;97360.94;5063200;28;20040;-59
2023/07/14 07:21:29;;;;;;;3.97;1.60;;;;;;;20.39;53.96;97358.38;5062630;28;20040;-59
2023/07/14 07:23:56;;;;;;;5.25;1.70;;;;;;;20.42;53.24;97364.38;5063928;28;20135;-58
2023/07/14 07:26:22;;;;;;;3.33;1.35;;;;;;;20.62;52.03;97354.75;5065518;28;20040;-58
2023/07/14 07:28:49;;;;;;;4.93;1.70;;;;;;;20.53;52.05;97366.53;5066496;28;20044;-56
2023/07/14 07:31:15;;;;;;;;;;;;;;;20.52;52.62;97355.84;5066290;28;20120;-57
2023/07/14 07:33:42;;;;;;;;;;;;;;;20.64;53.17;97360.75;5066481;28;19931;-57
2023/07/14 07:36:15;;;;;;;;;;;;;;;20.85;54.55;97363.72;5066728;28;19943;-55
2023/07/14 07:38:46;;;;;;;;;;;;;;;20.83;52.49;97356.91;5069965;28;19924;-59
2023/07/14 07:41:14;;;;;;;;;;;;;;;20.87;52.64;97357.91;5066475;28;19974;-59
2023/07/14 07:43:41;;;;;;;;;;;;;;;21.00;52.22;97356.16;5065130;28;19931;-58
2023/07/14 07:46:08;;;;;;;;;;;;;;;21.13;51.86;97349.72;5067463;28;19920;-59
2023/07/14 07:48:38;;;;;;;5.28;1.45;;;;;;;21.30;52.05;97343.41;5065867;28;19963;-59
2023/07/14 07:51:05;;;;;;;3.63;1.20;;;;;;;21.42;50.81;97348.25;5066158;28;20052;-58
2023/07/14 07:53:32;;;;;;;8.05;2.45;;;;;;;21.57;50.13;97340.66;5069152;28;20755;-59
2023/07/14 07:56:01;;;;;;;4.22;1.75;;;;;;;21.62;50.95;97339.66;5065242;28;20044;-58
2023/07/14 07:58:29;;;;;;;5.10;1.27;;;;;;;21.34;50.23;97340.00;5065445;28;20079;-59
2023/07/14 08:00:58;;;;;;;4.85;1.65;;;;;;;21.36;51.18;97334.97;5064417;28;20045;-58
2023/07/14 08:03:25;;;;;;;5.80;1.60;;;;;;;21.47;51.06;97329.94;5064256;28;20037;-59
2023/07/14 08:05:57;;;;;;;4.43;1.58;;;;;;;21.54;50.50;97327.50;5064941;28;20675;-59
2023/07/14 08:08:24;;;;;;;6.20;1.80;;;;;;;21.77;49.68;97317.13;5075120;28;20040;-59
2023/07/14 08:10:50;;;;;;;4.93;1.30;;;;;;;22.14;49.34;97327.75;5066920;28;20055;-59
2023/07/14 08:13:17;;;;;;;4.28;1.90;;;;;;;22.34;48.41;97319.88;5065880;28;20408;-56
2023/07/14 08:15:43;;;;;;;6.07;1.50;;;;;;;22.46;47.63;97321.94;5065193;28;20115;-59
2023/07/14 08:18:10;;;;;;;5.22;1.40;;;;;;;22.58;46.92;97321.25;5064653;28;20123;-59
2023/07/14 08:20:37;;;;;;;3.60;1.20;;;;;;;22.68;46.60;97320.88;5064844;28;20036;-59
2023/07/14 08:23:05;;;;;;;2.25;1.02;;;;;;;22.78;45.71;97325.22;5069961;28;20075;-57
2023/07/14 08:25:32;;;;;;;6.63;2.55;;;;;;;22.83;45.68;97327.78;5063575;28;20044;-60
2023/07/14 08:27:59;;;;;;;4.10;1.33;;;;;;;23.01;43.85;97330.41;5065897;28;20040;-60
2023/07/14 08:30:25;;;;;;;8.15;1.42;;;;;;;22.75;41.10;97314.84;5064814;28;20507;-58
2023/07/14 08:32:52;;;;;;;2.80;1.05;;;;;;;22.88;41.07;97318.47;5064393;28;20140;-59
2023/07/14 08:35:19;;;;;;;4.03;1.10;;;;;;;22.98;40.96;97320.84;5064384;28;20051;-58
2023/07/14 08:37:46;;;;;;;2.47;1.17;;;;;;;22.96;40.33;97308.53;5065214;28;20040;-58
2023/07/14 08:40:20;;;;;;;2.00;1.02;;;;;;;23.14;40.74;97311.94;5064218;28;20052;-60
2023/07/14 08:43:08;;;;;;;3.00;1.10;;;;;;;23.32;40.22;97309.03;5068982;28;20047;-58
2023/07/14 08:45:46;;;;;;;3.22;1.60;;;;;;;22.98;40.41;97306.22;5064862;28;21246;-59
2023/07/14 08:48:27;;;;;;;4.03;1.00;;;;;;;23.19;41.81;97306.25;5062422;28;20056;-58
2023/07/14 08:50:57;;;;;;;5.72;1.27;;;;;;;23.41;40.56;97307.06;5064993;28;20045;-59
2023/07/14 08:53:28;;;;;;;3.97;1.50;;;;;;;23.44;40.66;97300.06;5063646;28;20051;-59
2023/07/14 08:56:03;;;;;;;4.22;1.20;;;;;;;23.95;40.38;97304.59;5062577;28;20052;-58
2023/07/14 08:58:34;;;;;;;4.03;1.30;;;;;;;24.27;40.03;97299.34;5064475;28;20527;-60
2023/07/14 09:01:10;;;;;;;5.35;1.00;;;;;;;24.25;38.51;97305.22;5061073;28;20041;-59
2023/07/14 09:03:45;;;;;;;2.45;0.93;;;;;;;24.33;38.23;97300.75;5063276;28;20056;-58
2023/07/14 09:06:23;;;;;;;2.88;1.08;;;;;;;24.37;38.52;97298.09;5065148;28;20044;-60
2023/07/14 09:08:52;;;;;;;4.97;1.25;;;;;;;24.57;38.15;97299.13;5063379;28;20094;-60
2023/07/14 09:11:52;;;;;;;4.20;1.33;;;;;;;24.42;38.65;97301.44;5064654;28;20127;-60
2023/07/14 09:14:28;;;;;;;4.78;1.25;;;;;;;24.26;38.15;97294.97;5063523;28;20041;-59
2023/07/14 09:17:36;;;;;;;3.67;1.27;;;;;;;24.35;37.87;97301.19;5064178;28;20048;-59
2023/07/14 09:20:30;;;;;;;4.78;1.25;;;;;;;24.32;37.97;97299.13;5060708;28;20101;-59
2023/07/14 09:23:24;;;;;;;6.88;1.40;;;;;;;24.48;38.44;97303.97;5059079;28;20462;-59
2023/07/14 09:25:55;;;;;;;5.57;1.30;;;;;;;24.55;37.81;97299.47;5064871;28;20049;-59
2023/07/14 09:28:29;;;;;;;4.05;1.30;;;;;;;24.59;38.12;97296.00;5062082;28;20045;-60
2023/07/14 09:30:58;;;;;;;3.10;1.50;;;;;;;24.76;38.23;97303.28;5063609;28;20048;-59
2023/07/14 09:33:28;;;;;;;4.72;1.40;;;;;;;24.50;37.87;97290.59;5067894;28;20039;-59
2023/07/14 09:35:55;;;;;;;4.78;1.80;;;;;;;24.71;39.45;97292.41;5063736;28;20131;-59
2023/07/14 09:38:27;;;;;;;2.85;1.60;;;;;;;24.64;37.43;97287.47;5063501;28;20048;-60
2023/07/14 09:40:58;;;;;;;4.40;1.20;;;;;;;24.46;39.14;97278.63;5063827;28;20071;-57
2023/07/14 09:43:25;;;;;;;5.57;1.40;;;;;;;24.50;38.73;97291.41;5064428;28;20471;-58
2023/07/14 09:45:55;;;;;;;4.68;1.42;;;;;;;24.31;38.34;97280.09;5063054;28;20044;-59
2023/07/14 09:48:32;;;;;;;4.03;1.17;;;;;;;24.59;38.54;97284.94;5062883;28;20067;-59
2023/07/14 09:51:14;;;;;;;5.20;1.30;;;;;;;24.53;38.16;97279.66;5057381;28;20155;-61
2023/07/14 09:53:58;;;;;;;3.95;1.05;;;;;;;24.69;39.34;97278.91;5061814;28;20458;-61
2023/07/14 09:56:29;;;;;;;3.88;1.20;;;;;;;24.91;38.21;97276.88;5061906;28;20132;-60
2023/07/14 09:59:00;;;;;;;;;;;;;;;24.95;37.75;97275.00;5064087;28;20044;-60
2023/07/14 10:01:29;;;;;;;3.17;1.02;;;;;;;25.16;38.45;97271.22;5062934;28;19924;-60
2023/07/14 10:04:07;;;;;;;5.57;1.65;;;;;;;25.02;38.05;97274.41;5062827;28;20056;-59
2023/07/14 10:06:34;;;;;;;3.58;1.35;;;;;;;24.15;39.60;97266.97;5059188;28;20042;-59
2023/07/14 10:09:11;;;;;;;4.60;1.33;;;;;;;24.47;40.04;97263.63;5062725;28;20048;-59
2023/07/14 10:11:43;;;;;;;5.00;1.30;;;;;;;24.69;39.48;97267.84;5062413;28;20090;-59
2023/07/14 10:14:19;;;;;;;3.90;1.63;;;;;;;24.90;38.21;97266.91;5058793;28;20067;-59
2023/07/14 10:16:47;;;;;;;4.90;1.40;;;;;;;24.17;40.24;97267.41;5061020;28;20036;-60
2023/07/14 10:19:18;;;;;;;3.17;1.30;;;;;;;24.52;39.54;97260.63;5063360;28;20181;-59
2023/07/14 10:21:56;;;;;;;3.15;1.10;;;;;;;24.66;39.42;97265.78;5061096;28;20040;-60
2023/07/14 10:24:23;;;;;;;4.32;1.80;;;;;;;24.99;38.70;97262.03;5062384;28;20043;-59
2023/07/14 10:26:54;;;;;;;3.95;1.30;;;;;;;25.18;38.65;97266.94;5063080;28;20669;-56
2023/07/14 10:29:23;;;;;;;6.65;1.23;;;;;;;25.34;38.66;97260.66;5062266;28;20417;-59
2023/07/14 10:32:17;;;;;;;2.55;1.08;;;;;;;25.51;38.07;97258.75;5061486;28;20406;-59
2023/07/14 10:34:47;;;;;;;3.65;1.23;;;;;;;25.74;37.37;97255.41;5062561;28;20041;-58
2023/07/14 10:37:24;;;;;;;4.65;1.40;;;;;;;25.14;37.37;97254.94;5062296;28;20043;-58
2023/07/14 10:40:00;;;;;;;3.47;1.27;;;;;;;25.58;36.23;97254.22;5062002;28;20193;-60
2023/07/14 10:42:32;;;;;;;3.45;1.50;;;;;;;25.24;37.84;97250.09;5061543;28;20037;-59
2023/07/14 10:44:59;;;;;;;5.65;1.88;;;;;;;24.66;38.43;97249.97;5060631;28;20082;-59
2023/07/14 10:47:31;;;;;;;6.30;1.40;;;;;;;25.01;39.23;97245.06;5059635;28;20036;-59
2023/07/14 10:50:18;;;;;;;2.88;1.10;;;;;;;25.32;36.95;97238.06;5062708;28;20064;-59
2023/07/14 10:52:54;;;;;;;3.40;1.30;;;;;;;25.49;36.98;97238.88;5065245;28;20631;-59
2023/07/14 10:55:28;;;;;;;4.22;1.63;;;;;;;25.50;37.21;97235.75;5061963;28;20040;-58
2023/07/14 10:57:59;;;;;;;3.83;1.33;;;;;;;25.19;38.46;97231.75;5062721;28;20056;-60
2023/07/14 11:00:35;;;;;;;3.88;1.60;;;;;;;25.61;37.69;97229.72;5065119;28;20048;-59
2023/07/14 11:03:21;;;;;;;4.68;1.40;;;;;;;25.83;36.83;97228.31;5061931;28;20503;-60
2023/07/14 11:06:15;;;;;;;3.80;1.17;;;;;;;25.65;36.91;97230.63;5065473;28;20045;-59
2023/07/14 11:08:42;;;;;;;4.75;1.55;;;;;;;25.83;36.78;97229.13;5065047;28;20136;-58
2023/07/14 11:11:18;;;;;;;5.00;1.30;;;;;;;26.22;36.29;97224.91;5067623;28;20070;-59
2023/07/14 11:14:18;;;;;;;3.22;1.40;;;;;;;25.97;36.59;97222.31;5064097;28;20037;-59
2023/07/14 11:17:00;;;;;;;3.85;1.35;;;;;;;26.06;35.47;97222.94;5066118;28;20491;-59
2023/07/14 11:19:48;;;;;;;3.72;1.45;;;;;;;26.13;35.05;97219.53;5065176;28;20055;-58
2023/07/14 11:22:42;;;;;;;4.03;1.20;;;;;;;26.12;37.16;97215.16;5063354;28;20055;-60
2023/07/14 11:25:33;;;;;;;3.80;1.38;;;;;;;25.67;36.46;97206.94;5066827;28;20043;-59
2023/07/14 11:28:11;;;;;;;3.75;1.40;;;;;;;25.91;35.99;97213.47;5064330;28;20718;-59
2023/07/14 11:30:44;;;;;;;4.20;1.33;;;;;;;25.69;36.57;97217.66;5066105;28;20545;-59
2023/07/14 11:33:36;;;;;;;3.17;1.30;;;;;;;25.81;35.00;97208.47;5065722;28;20044;-58
2023/07/14 11:36:15;;;;;;;3.20;1.30;;;;;;;26.18;35.01;97208.19;5064493;28;20037;-59
2023/07/14 11:38:48;;;;;;;3.25;1.23;;;;;;;26.55;34.97;97209.84;5065225;28;20037;-59
2023/07/14 11:41:17;;;;;;;3.45;1.20;;;;;;;26.56;34.21;97211.44;5065824;28;20036;-58
2023/07/14 11:43:44;;;;;;;3.95;1.20;;;;;;;26.58;34.63;97203.56;5064995;28;20049;-58
2023/07/14 11:46:22;;;;;;;4.68;1.33;;;;;;;26.16;34.94;97191.06;5065731;28;20044;-58
2023/07/14 11:48:48;;;;;;;4.75;1.40;;;;;;;26.47;34.19;97194.97;5064479;28;20048;-59
2023/07/14 11:51:20;;;;;;;5.25;1.67;;;;;;;26.51;34.94;97199.81;5062713;28;20047;-57